Time;durP1;ratioP1;P1;durP2;ratioP2;P2;SDS_P1;SDS_P2;PMS_P1;PMS_P2;Temp;Humidity;BMP_temperature;BMP_pressure;BME280_temperature;BME280_humidity;BME280_pressure;Samples;Min_cycle;Max_cycle;Signal;HPM_P1;HPM_P2
2022/12/06 00:01:18;;;;;;;47.00;23.48;;;;;;;9.07;81.52;100543.56;5072476;28;20029;-37
2022/12/06 00:03:46;;;;;;;44.80;23.87;;;;;;;9.08;81.12;100543.38;5072347;28;20052;-37
2022/12/06 00:06:14;;;;;;;45.22;23.60;;;;;;;9.38;80.03;100538.22;5072095;28;20099;-37
2022/12/06 00:08:40;;;;;;;44.60;23.63;;;;;;;9.09;80.62;100547.69;5072421;28;20028;-37
2022/12/06 00:11:10;;;;;;;42.78;21.58;;;;;;;9.01;81.25;100545.06;5072153;28;20063;-36
2022/12/06 00:13:37;;;;;;;41.22;22.30;;;;;;;9.13;80.17;100519.75;5072433;28;20032;-36
2022/12/06 00:16:04;;;;;;;48.63;22.02;;;;;;;9.08;79.95;100537.22;5072089;28;20044;-36
2022/12/06 00:18:33;;;;;;;53.47;22.25;;;;;;;9.21;79.49;100532.16;5072253;28;20039;-36
2022/12/06 00:21:10;;;;;;;45.85;23.30;;;;;;;9.18;80.19;100524.56;5071685;28;20519;-36
2022/12/06 00:23:41;;;;;;;46.08;23.55;;;;;;;9.16;79.79;100529.22;5070927;28;20173;-35
2022/12/06 00:26:08;;;;;;;47.35;24.42;;;;;;;9.27;79.41;100520.88;5071927;28;20048;-35
2022/12/06 00:28:35;;;;;;;47.83;24.65;;;;;;;9.23;79.61;100521.38;5071763;28;20525;-36
2022/12/06 00:31:03;;;;;;;44.22;23.55;;;;;;;8.99;80.24;100526.66;5072036;28;20116;-36
2022/12/06 00:33:28;;;;;;;44.33;23.10;;;;;;;9.19;79.96;100526.22;5071868;28;20483;-45
2022/12/06 00:35:58;;;;;;;50.13;25.05;;;;;;;9.04;80.77;100534.09;5071910;28;20071;-44
2022/12/06 00:38:25;;;;;;;53.25;24.88;;;;;;;9.03;81.25;100527.13;5071980;28;20384;-35
2022/12/06 00:41:02;;;;;;;50.05;25.83;;;;;;;8.96;81.02;100524.34;5071662;28;20030;-36
2022/12/06 00:43:28;;;;;;;52.75;25.08;;;;;;;9.08;80.32;100513.31;5071786;28;20484;-37
2022/12/06 00:45:54;;;;;;;47.53;25.20;;;;;;;8.97;80.56;100520.69;5071669;28;20032;-35
2022/12/06 00:48:20;;;;;;;46.75;24.55;;;;;;;8.99;80.76;100520.53;5071527;28;20103;-36
2022/12/06 00:50:45;;;;;;;48.03;24.30;;;;;;;8.87;81.39;100512.13;5071947;28;20052;-36
2022/12/06 00:53:10;;;;;;;47.58;24.38;;;;;;;9.01;80.86;100502.59;5071386;28;20032;-36
2022/12/06 00:55:36;;;;;;;47.60;24.05;;;;;;;9.00;80.83;100500.94;5071575;28;20029;-36
2022/12/06 00:58:01;;;;;;;51.83;24.92;;;;;;;9.12;79.22;100502.19;5071897;28;20021;-36
2022/12/06 01:00:26;;;;;;;47.33;24.70;;;;;;;9.10;79.80;100495.38;5071562;28;20043;-36
2022/12/06 01:02:52;;;;;;;49.00;25.08;;;;;;;9.10;79.59;100492.72;5071276;28;20061;-36
2022/12/06 01:05:17;;;;;;;48.97;24.45;;;;;;;9.14;79.49;100492.22;5071507;28;20035;-36
2022/12/06 01:07:43;;;;;;;46.10;24.58;;;;;;;9.02;79.51;100483.00;5071070;28;20036;-36
2022/12/06 01:10:08;;;;;;;46.17;24.23;;;;;;;9.12;79.53;100477.44;5071066;28;20484;-36
2022/12/06 01:12:34;;;;;;;49.08;24.27;;;;;;;9.27;79.12;100481.03;5071009;28;20510;-36
2022/12/06 01:14:59;;;;;;;51.58;25.08;;;;;;;8.98;80.12;100476.38;5071137;28;20085;-36
2022/12/06 01:17:25;;;;;;;45.53;24.60;;;;;;;9.07;79.71;100466.56;5071185;28;20464;-36
2022/12/06 01:19:50;;;;;;;47.28;24.60;;;;;;;9.11;79.99;100462.53;5070971;28;20032;-36
2022/12/06 01:22:15;;;;;;;52.42;25.80;;;;;;;8.92;80.44;100463.81;5070848;28;20025;-36
2022/12/06 01:24:41;;;;;;;51.95;25.13;;;;;;;8.85;80.81;100463.66;5071046;28;20457;-36
2022/12/06 01:27:06;;;;;;;55.25;25.52;;;;;;;8.99;80.25;100464.78;5071040;28;20147;-37
2022/12/06 01:29:32;;;;;;;49.63;24.55;;;;;;;9.05;79.94;100464.06;5070537;28;20132;-37
2022/12/06 01:31:58;;;;;;;48.50;25.67;;;;;;;9.04;80.54;100470.38;5070859;28;20055;-36
2022/12/06 01:34:23;;;;;;;51.70;24.75;;;;;;;8.94;80.79;100467.94;5071604;28;20031;-37
2022/12/06 01:36:49;;;;;;;49.55;26.10;;;;;;;8.94;81.22;100467.94;5075131;28;20210;-38
2022/12/06 01:39:14;;;;;;;44.55;24.20;;;;;;;8.94;81.72;100467.94;5075186;28;20150;-37
2022/12/06 01:41:40;;;;;;;50.05;24.50;;;;;;;8.93;81.79;100465.44;5073699;28;20031;-36
2022/12/06 01:44:26;;;;;;;47.20;24.50;;;;;;;8.82;82.40;100468.53;5074909;28;20017;-37
2022/12/06 01:46:52;;;;;;;47.42;24.90;;;;;;;9.04;82.06;100461.56;5074853;28;20119;-37
2022/12/06 01:49:23;;;;;;;49.95;24.95;;;;;;;9.21;80.30;100465.78;5075164;28;20170;-37
2022/12/06 01:51:53;;;;;;;51.10;24.20;;;;;;;8.97;81.35;100467.59;5074945;28;20100;-37
2022/12/06 01:54:21;;;;;;;49.63;24.70;;;;;;;9.24;79.90;100468.09;5074681;28;20020;-36
2022/12/06 01:56:48;;;;;;;48.50;24.83;;;;;;;9.15;80.43;100464.66;5074979;28;20457;-36
2022/12/06 01:59:14;;;;;;;51.65;25.75;;;;;;;9.10;80.41;100464.38;5073475;28;20140;-36
2022/12/06 02:01:40;;;;;;;56.33;26.40;;;;;;;8.84;81.40;100464.69;5074927;28;20032;-37
2022/12/06 02:04:05;;;;;;;52.30;26.00;;;;;;;9.04;80.76;100457.09;5074731;28;20395;-37
2022/12/06 02:06:31;;;;;;;51.50;25.63;;;;;;;8.97;81.69;100456.16;5074657;28;20067;-37
2022/12/06 02:09:02;;;;;;;50.33;25.63;;;;;;;9.02;81.14;100451.13;5074769;28;20417;-36
2022/12/06 02:11:27;;;;;;;47.58;24.80;;;;;;;8.79;82.36;100451.09;5074724;28;20024;-36
2022/12/06 02:13:53;;;;;;;50.35;25.13;;;;;;;8.94;82.17;100437.91;5074681;28;20112;-37
2022/12/06 02:16:55;;;;;;;46.63;24.83;;;;;;;8.80;82.72;100442.97;5074479;28;20067;-36
2022/12/06 02:19:54;;;;;;;51.95;25.55;;;;;;;9.07;81.36;100440.00;5074659;28;20040;-37
2022/12/06 02:22:35;;;;;;;51.80;25.70;;;;;;;9.05;81.80;100442.81;5074133;28;20092;-37
2022/12/06 02:25:31;;;;;;;48.58;24.17;;;;;;;9.00;81.53;100442.53;5074200;28;20035;-37
2022/12/06 02:28:18;;;;;;;50.35;24.98;;;;;;;8.92;82.20;100437.28;5074448;28;20028;-37
2022/12/06 02:31:01;;;;;;;49.28;25.23;;;;;;;8.73;82.89;100443.84;5074202;28;20036;-37
2022/12/06 02:33:44;;;;;;;51.28;24.38;;;;;;;9.06;81.46;100441.00;5074020;28;20105;-37
2022/12/06 02:36:26;;;;;;;50.03;24.90;;;;;;;9.03;81.89;100434.22;5074051;28;20435;-37
2022/12/06 02:38:58;;;;;;;51.13;25.13;;;;;;;8.95;81.28;100445.72;5074450;28;20036;-37
2022/12/06 02:41:34;;;;;;;50.35;24.98;;;;;;;8.98;81.84;100455.16;5073984;28;20020;-37
2022/12/06 02:44:07;;;;;;;49.13;23.52;;;;;;;8.95;82.15;100452.84;5074132;28;20108;-37
2022/12/06 02:46:36;;;;;;;46.80;24.88;;;;;;;8.95;82.15;100445.72;5072739;28;20039;-37
2022/12/06 02:49:05;;;;;;;48.42;25.27;;;;;;;9.06;81.86;100443.66;5073786;28;20043;-37
2022/12/06 02:51:35;;;;;;;49.65;25.25;;;;;;;8.98;81.62;100445.34;5074109;28;20123;-37
2022/12/06 02:54:06;;;;;;;51.58;25.08;;;;;;;9.00;81.13;100432.75;5073853;28;20358;-37
2022/12/06 02:56:32;;;;;;;49.65;26.35;;;;;;;9.19;80.75;100450.03;5073712;28;20025;-37
2022/12/06 02:58:58;;;;;;;57.08;25.80;;;;;;;9.02;81.37;100447.66;5073730;28;20087;-37
2022/12/06 03:01:37;;;;;;;53.47;25.33;;;;;;;9.15;81.23;100450.56;5073626;28;20033;-37
2022/12/06 03:04:30;;;;;;;50.00;25.08;;;;;;;8.81;82.45;100449.09;5073613;28;20103;-37
2022/12/06 03:07:20;;;;;;;45.92;24.05;;;;;;;9.04;82.10;100446.47;5073369;28;20369;-37
2022/12/06 03:09:56;;;;;;;50.35;24.52;;;;;;;9.22;80.99;100445.38;5073806;28;20025;-37
2022/12/06 03:12:38;;;;;;;50.42;24.92;;;;;;;9.06;81.86;100444.47;5073636;28;20372;-37
2022/12/06 03:15:35;;;;;;;52.55;26.50;;;;;;;8.90;82.87;100442.75;5073334;28;20092;-37
2022/12/06 03:18:06;;;;;;;52.10;25.88;;;;;;;8.97;82.83;100446.34;5073254;28;20318;-37
2022/12/06 03:20:46;;;;;;;53.40;26.65;;;;;;;9.04;82.53;100443.00;5073545;28;20032;-37
2022/12/06 03:23:20;;;;;;;55.37;26.53;;;;;;;9.25;81.94;100440.50;5073192;28;20020;-37
2022/12/06 03:25:47;;;;;;;54.53;26.35;;;;;;;9.13;82.17;100444.59;5073325;28;20269;-37
2022/12/06 03:28:16;;;;;;;50.67;25.65;;;;;;;9.14;81.76;100443.59;5073172;28;20029;-37
2022/12/06 03:30:44;;;;;;;51.80;25.73;;;;;;;9.23;81.16;100441.69;5073208;28;20104;-36
2022/12/06 03:33:12;;;;;;;54.00;25.43;;;;;;;9.10;81.25;100431.66;5072748;28;20412;-36
2022/12/06 03:35:39;;;;;;;54.75;26.73;;;;;;;9.19;81.24;100441.22;5072282;28;20029;-37
2022/12/06 03:38:08;;;;;;;54.30;26.30;;;;;;;9.32;80.74;100438.81;5072454;28;20050;-36
2022/12/06 03:40:36;;;;;;;53.53;25.85;;;;;;;9.31;80.72;100434.50;5072749;28;20036;-36
2022/12/06 03:43:04;;;;;;;54.65;27.70;;;;;;;9.25;80.77;100442.34;5071251;28;20028;-36
2022/12/06 03:45:37;;;;;;;56.38;26.08;;;;;;;9.11;81.19;100434.16;5072833;28;20024;-36
2022/12/06 03:48:14;;;;;;;54.97;25.80;;;;;;;8.92;82.61;100437.28;5072887;28;20384;-36
2022/12/06 03:50:46;;;;;;;48.97;25.65;;;;;;;8.92;82.44;100426.66;5072833;28;20116;-36
2022/12/06 03:53:11;;;;;;;55.40;27.95;;;;;;;9.11;81.64;100425.38;5072604;28;20032;-36
2022/12/06 03:55:37;;;;;;;62.22;30.58;;;;;;;9.04;81.66;100421.75;5072656;28;20417;-36
2022/12/06 03:58:02;;;;;;;62.35;30.25;;;;;;;8.96;82.36;100430.59;5072392;28;20024;-37
2022/12/06 04:00:28;;;;;;;55.90;27.20;;;;;;;9.08;81.93;100434.53;5072304;28;20024;-37
2022/12/06 04:02:54;;;;;;;51.53;24.80;;;;;;;8.98;82.37;100426.75;5072228;28;20050;-36
2022/12/06 04:05:19;;;;;;;50.33;24.85;;;;;;;9.10;82.01;100431.66;5072368;28;20341;-35
2022/12/06 04:07:44;;;;;;;51.58;24.90;;;;;;;8.95;82.55;100427.13;5072344;28;20404;-36
2022/12/06 04:10:10;;;;;;;49.38;24.98;;;;;;;9.07;82.12;100424.06;5072450;28;20428;-35
2022/12/06 04:15:21;;;;;;;98.53;49.17;;;;;;;9.25;80.87;100424.56;5071671;28;20048;-36
2022/12/06 04:23:02;;;;;;;71.70;35.55;;;;;;;9.23;81.83;100425.75;5071754;28;20085;-36
2022/12/06 04:23:17;;;;;;;55.55;27.42;;;;;;;9.28;81.43;100424.22;5071769;28;20024;-37
2022/12/06 04:25:43;;;;;;;53.47;25.85;;;;;;;8.91;82.82;100425.84;5071575;28;20025;-36
2022/12/06 04:39:06;;;;;;;56.30;27.75;;;;;;;8.71;83.89;100414.00;5072064;28;20031;-35
2022/12/06 04:44:15;;;;;;;57.45;29.48;;;;;;;8.74;83.42;100418.97;5071836;28;20035;-37
2022/12/06 04:46:41;;;;;;;89.90;45.72;;;;;;;8.64;84.31;100411.22;5071626;28;20028;-35
2022/12/06 04:49:06;;;;;;;176.48;83.97;;;;;;;8.59;84.73;100414.41;5071575;28;20029;-38
2022/12/06 04:51:33;;;;;;;71.18;34.00;;;;;;;8.71;83.71;100417.47;5071781;28;20086;-35
2022/12/06 04:53:58;;;;;;;53.80;28.63;;;;;;;8.88;83.10;100420.88;5071558;28;20016;-37
2022/12/06 04:56:24;;;;;;;55.47;28.08;;;;;;;8.97;82.40;100414.50;5071255;28;20502;-36
2022/12/06 04:58:50;;;;;;;60.60;29.13;;;;;;;8.88;82.56;100422.69;5071146;28;20056;-37
2022/12/06 05:01:15;;;;;;;62.15;29.17;;;;;;;9.02;82.34;100419.28;5071424;28;20031;-35
2022/12/06 05:03:41;;;;;;;62.90;29.42;;;;;;;8.84;83.44;100421.41;5071387;28;20024;-36
2022/12/06 05:06:07;;;;;;;52.10;26.55;;;;;;;8.65;84.57;100425.31;5071101;28;20052;-36
2022/12/06 05:08:32;;;;;;;57.42;27.42;;;;;;;8.78;84.29;100434.38;5071207;28;20527;-37
2022/12/06 05:10:58;;;;;;;58.63;28.75;;;;;;;8.73;84.30;100435.88;5070492;28;20021;-37
2022/12/06 05:13:24;;;;;;;52.50;28.75;;;;;;;8.74;84.71;100434.91;5070303;28;20058;-36
2022/12/06 05:15:50;;;;;;;79.43;40.65;;;;;;;8.82;84.42;100440.16;5070427;28;20154;-37
2022/12/06 05:18:16;;;;;;;62.15;30.25;;;;;;;8.66;84.35;100440.22;5070295;28;20525;-36
2022/12/06 05:20:41;;;;;;;80.88;42.10;;;;;;;8.76;85.12;100441.69;5070426;28;20029;-35
2022/12/06 05:23:06;;;;;;;74.95;38.08;;;;;;;8.50;85.77;100443.81;5070055;28;20558;-36
2022/12/06 05:25:32;;;;;;;57.35;27.88;;;;;;;8.53;85.54;100430.16;5070481;28;20095;-36
2022/12/06 05:27:57;;;;;;;50.28;25.40;;;;;;;8.45;86.29;100435.53;5070266;28;20100;-35
2022/12/06 05:30:23;;;;;;;50.83;25.05;;;;;;;8.60;90.16;100428.47;5070286;28;20017;-37
2022/12/06 05:32:48;;;;;;;51.97;24.90;;;;;;;9.30;90.70;100432.03;5070406;28;20368;-37
2022/12/06 05:35:13;;;;;;;47.78;23.80;;;;;;;9.85;86.13;100424.72;5070788;28;20111;-37
2022/12/06 05:37:39;;;;;;;44.05;24.17;;;;;;;10.37;84.73;100434.47;5066955;28;20400;-37
2022/12/06 05:40:05;;;;;;;38.33;21.10;;;;;;;10.74;83.24;100438.00;5070696;28;20093;-37
2022/12/06 05:42:30;;;;;;;39.45;21.63;;;;;;;11.17;80.06;100429.22;5070536;28;20070;-36
2022/12/06 05:44:56;;;;;;;41.30;22.85;;;;;;;11.55;77.44;100432.41;5070315;28;20272;-36
2022/12/06 05:47:21;;;;;;;44.67;24.75;;;;;;;11.54;76.00;100430.78;5070350;28;20526;-36
2022/12/06 05:49:47;;;;;;;42.60;22.20;;;;;;;11.70;77.72;100432.31;5069815;28;20040;-36
2022/12/06 05:52:12;;;;;;;42.65;22.95;;;;;;;11.72;75.66;100436.44;5070169;28;20044;-36
2022/12/06 05:54:37;;;;;;;41.47;21.50;;;;;;;12.01;74.45;100433.78;5070020;28;20115;-36
2022/12/06 05:57:03;;;;;;;37.17;21.73;;;;;;;12.18;73.78;100432.44;5070426;28;20016;-37
2022/12/06 05:59:28;;;;;;;40.95;21.70;;;;;;;11.90;75.60;100441.31;5070140;28;20021;-36
2022/12/06 06:01:54;;;;;;;39.80;21.58;;;;;;;11.72;75.05;100436.44;5071124;28;20423;-36
2022/12/06 06:04:19;;;;;;;37.33;21.40;;;;;;;11.50;72.43;100434.84;5070774;28;20391;-36
2022/12/06 06:06:44;;;;;;;40.60;23.00;;;;;;;11.27;72.06;100425.22;5070316;28;20479;-36
2022/12/06 06:09:10;;;;;;;42.60;23.02;;;;;;;10.75;73.73;100436.97;5069942;28;20458;-36
2022/12/06 06:11:35;;;;;;;40.58;23.90;;;;;;;10.21;76.25;100430.13;5070124;28;20025;-36
2022/12/06 06:14:01;;;;;;;69.88;41.28;;;;;;;9.73;80.18;100441.13;5070499;28;20067;-36
2022/12/06 06:16:26;;;;;;;49.30;27.70;;;;;;;9.53;81.01;100442.63;5069908;28;20053;-36
2022/12/06 06:18:51;;;;;;;47.58;24.70;;;;;;;9.55;80.13;100437.94;5065321;28;20071;-36
2022/12/06 06:21:17;;;;;;;45.13;23.70;;;;;;;9.56;80.13;100434.31;5061197;28;20028;-38
2022/12/06 06:23:42;;;;;;;43.38;23.17;;;;;;;9.70;79.27;100433.50;5070763;28;20483;-36
2022/12/06 06:26:10;;;;;;;45.88;24.08;;;;;;;9.54;79.76;100433.66;5074184;28;20024;-37
2022/12/06 06:28:35;;;;;;;47.53;23.42;;;;;;;9.28;81.32;100423.41;5073053;28;20024;-37
2022/12/06 06:31:03;;;;;;;45.70;23.25;;;;;;;9.16;81.96;100423.00;5072950;28;20039;-37
2022/12/06 06:33:28;;;;;;;42.70;22.98;;;;;;;9.03;82.58;100420.13;5073066;28;20443;-37
2022/12/06 06:35:54;;;;;;;45.28;23.52;;;;;;;9.11;82.50;100425.38;5073391;28;20028;-37
2022/12/06 06:38:19;;;;;;;44.38;22.58;;;;;;;8.89;83.86;100421.69;5073259;28;20020;-37
2022/12/06 06:40:44;;;;;;;49.35;21.25;;;;;;;9.20;81.87;100426.97;5072766;28;20023;-37
2022/12/06 06:43:22;;;;;;;43.47;22.25;;;;;;;9.12;80.70;100398.63;5071736;28;20028;-37
2022/12/06 06:46:02;;;;;;;39.67;21.25;;;;;;;9.39;79.85;100420.34;5072273;28;20447;-36
2022/12/06 06:48:30;;;;;;;41.70;21.48;;;;;;;9.60;78.68;100422.31;5072457;28;20449;-37
2022/12/06 06:51:08;;;;;;;38.78;21.17;;;;;;;9.64;78.61;100423.59;5072036;28;20035;-37
2022/12/06 06:53:33;;;;;;;44.28;22.92;;;;;;;9.24;80.21;100422.94;5072101;28;20028;-37
2022/12/06 06:55:59;;;;;;;41.72;22.33;;;;;;;9.52;79.23;100433.00;5071885;28;20036;-37
2022/12/06 06:58:24;;;;;;;45.00;23.65;;;;;;;9.38;80.14;100429.28;5072489;28;20031;-37
2022/12/06 07:00:59;;;;;;;50.08;24.42;;;;;;;9.35;80.33;100430.50;5073012;28;20028;-37
2022/12/06 07:03:26;;;;;;;49.33;25.52;;;;;;;9.47;79.71;100427.41;5072115;28;20394;-36
2022/12/06 07:05:52;;;;;;;54.65;26.45;;;;;;;9.58;79.01;100432.28;5072822;28;20099;-36
2022/12/06 07:08:17;;;;;;;48.45;25.35;;;;;;;9.68;78.42;100434.69;5072736;28;20559;-36
2022/12/06 07:10:47;;;;;;;54.95;24.98;;;;;;;9.58;79.68;100432.28;5072608;28;20099;-36
2022/12/06 07:13:17;;;;;;;49.13;23.65;;;;;;;9.68;78.70;100424.88;5072628;28;20029;-36
2022/12/06 07:15:43;;;;;;;46.97;23.30;;;;;;;9.68;79.20;100437.34;5072492;28;20143;-37
2022/12/06 07:18:09;;;;;;;48.67;24.48;;;;;;;9.68;78.40;100422.22;5071044;28;20119;-45
2022/12/06 07:20:34;;;;;;;43.85;23.77;;;;;;;9.74;78.73;100425.97;5072283;28;20035;-36
2022/12/06 07:23:00;;;;;;;47.85;23.98;;;;;;;9.61;78.83;100423.13;5072526;28;20042;-36
2022/12/06 07:25:25;;;;;;;55.92;23.23;;;;;;;9.92;77.25;100423.81;5072535;28;20044;-36
2022/12/06 07:27:51;;;;;;;47.65;23.63;;;;;;;9.77;77.94;100422.97;5072308;28;20496;-36
2022/12/06 07:30:16;;;;;;;44.85;22.92;;;;;;;9.79;78.00;100415.66;5072581;28;20056;-36
2022/12/06 07:32:42;;;;;;;45.88;23.63;;;;;;;9.75;77.92;100415.19;5071864;28;20114;-37
2022/12/06 07:35:07;;;;;;;49.28;24.00;;;;;;;9.61;78.99;100413.31;5072125;28;20028;-35
2022/12/06 07:37:33;;;;;;;45.22;23.85;;;;;;;9.83;78.47;100416.94;5071634;28;20020;-36
2022/12/06 07:39:58;;;;;;;44.63;23.48;;;;;;;9.89;77.36;100420.69;5070267;28;20120;-36
2022/12/06 07:45:10;;;;;;;47.78;23.15;;;;;;;9.99;76.70;100421.22;5072582;28;20039;-37
2022/12/06 07:47:41;;;;;;;43.70;23.35;;;;;;;9.98;76.83;100419.59;5071805;28;20480;-38
2022/12/06 07:50:11;;;;;;;45.00;23.60;;;;;;;10.33;74.93;100418.03;5072042;28;20499;-37
2022/12/06 07:52:36;;;;;;;50.03;23.83;;;;;;;10.16;75.33;100412.06;5071846;28;20407;-35
2022/12/06 07:55:04;;;;;;;40.97;22.30;;;;;;;10.32;75.29;100421.72;5072029;28;20036;-37
2022/12/06 07:57:30;;;;;;;42.03;22.98;;;;;;;10.35;74.21;100415.19;5071801;28;20017;-37
2022/12/06 07:59:55;;;;;;;54.33;24.00;;;;;;;10.23;74.70;100398.03;5072012;28;20036;-37
2022/12/06 08:02:24;;;;;;;43.67;23.52;;;;;;;10.33;74.32;100406.59;5071877;28;20031;-37
2022/12/06 08:04:50;;;;;;;47.25;23.27;;;;;;;10.69;72.74;100403.13;5071370;28;20097;-37
2022/12/06 08:07:16;;;;;;;47.28;25.08;;;;;;;10.82;71.83;100407.75;5071309;28;20021;-37
2022/12/06 08:09:41;;;;;;;50.97;25.75;;;;;;;10.69;72.21;100411.09;5071172;28;20027;-37
2022/12/06 08:12:07;;;;;;;48.70;23.50;;;;;;;10.50;73.80;100413.34;5071414;28;20033;-37
2022/12/06 08:14:33;;;;;;;47.97;24.13;;;;;;;10.48;73.24;100419.88;5071201;28;20071;-37
2022/12/06 08:16:59;;;;;;;50.47;24.35;;;;;;;10.47;72.99;100413.72;5071125;28;20041;-37
2022/12/06 08:19:25;;;;;;;47.17;23.58;;;;;;;10.55;72.01;100407.47;5071225;28;20401;-37
2022/12/06 08:21:50;;;;;;;50.40;24.92;;;;;;;10.64;71.51;100400.19;5071078;28;20024;-37
2022/12/06 08:24:16;;;;;;;48.50;23.17;;;;;;;10.80;71.02;100405.28;5070922;28;20024;-38
2022/12/06 08:26:41;;;;;;;55.85;24.38;;;;;;;10.54;71.29;100398.63;5071010;28;20021;-36
2022/12/06 08:29:07;;;;;;;45.35;24.02;;;;;;;10.79;71.18;100395.63;5070873;28;20032;-37
2022/12/06 08:31:35;;;;;;;47.97;24.60;;;;;;;10.92;71.42;100393.09;5071102;28;20416;-36
2022/12/06 08:34:01;;;;;;;53.22;25.60;;;;;;;11.03;70.17;100391.78;5069696;28;20035;-38
2022/12/06 08:36:27;;;;;;;47.92;24.73;;;;;;;11.31;69.36;100397.16;5069593;28;20027;-36
2022/12/06 08:38:54;;;;;;;51.95;24.77;;;;;;;11.26;69.90;100388.91;5069337;28;20021;-36
2022/12/06 08:44:08;;;;;;;51.42;24.98;;;;;;;10.93;71.08;100377.97;5068681;28;20040;-36
2022/12/06 08:46:34;;;;;;;51.20;24.52;;;;;;;11.00;69.72;100378.03;5069290;28;20085;-37
2022/12/06 08:49:00;;;;;;;56.88;26.02;;;;;;;11.00;69.35;100370.03;5069319;28;20020;-37
2022/12/06 08:51:27;;;;;;;52.80;26.42;;;;;;;10.68;70.80;100370.34;5068753;28;20047;-36
2022/12/06 08:53:54;;;;;;;53.40;27.08;;;;;;;10.78;70.69;100374.56;5069300;28;20017;-36
2022/12/06 08:56:20;;;;;;;53.58;26.98;;;;;;;11.14;69.27;100361.16;5069206;28;20048;-45
2022/12/06 08:58:46;;;;;;;50.25;27.02;;;;;;;11.24;68.82;100363.50;5069148;28;20096;-44
2022/12/06 09:01:14;;;;;;;58.40;27.30;;;;;;;10.93;70.07;100364.66;5068870;28;20226;-41
2022/12/06 09:03:39;;;;;;;56.83;27.63;;;;;;;11.11;70.01;100361.53;5069383;28;20082;-43
2022/12/06 09:06:06;;;;;;;58.83;28.17;;;;;;;11.15;70.62;100360.13;5069216;28;20024;-45
2022/12/06 09:08:31;;;;;;;53.05;28.08;;;;;;;11.05;70.20;100355.13;5069287;28;20052;-43
2022/12/06 09:10:57;;;;;;;58.97;28.33;;;;;;;10.57;71.87;100353.03;5069039;28;20473;-44
2022/12/06 09:13:22;;;;;;;55.85;28.38;;;;;;;10.68;72.75;100354.38;5068881;28;20030;-46
2022/12/06 09:15:47;;;;;;;62.75;29.02;;;;;;;10.87;71.12;100338.78;5069382;28;20045;-36
2022/12/06 09:18:13;;;;;;;51.53;28.02;;;;;;;10.85;71.39;100343.47;5068977;28;20024;-37
2022/12/06 09:20:41;;;;;;;50.95;27.17;;;;;;;10.93;69.81;100346.84;5068817;28;20020;-36
2022/12/06 09:23:07;;;;;;;59.47;28.48;;;;;;;10.79;71.15;100338.91;5069705;28;20485;-44
2022/12/06 09:25:32;;;;;;;57.80;28.00;;;;;;;10.81;70.69;100342.22;5070285;28;20032;-45
2022/12/06 09:27:59;;;;;;;61.80;28.23;;;;;;;10.81;72.10;100329.72;5070808;28;20056;-38
2022/12/06 09:30:25;;;;;;;54.65;26.10;;;;;;;10.85;71.34;100330.16;5070524;28;20048;-44
2022/12/06 09:32:52;;;;;;;60.08;28.35;;;;;;;10.95;71.46;100323.50;5070557;28;20020;-46
2022/12/06 09:35:18;;;;;;;49.90;26.25;;;;;;;10.82;71.90;100322.56;5070506;28;20024;-43
2022/12/06 09:37:44;;;;;;;52.65;27.38;;;;;;;10.72;71.23;100336.19;5070362;28;20022;-42
2022/12/06 09:40:41;;;;;;;51.53;26.05;;;;;;;10.72;71.62;100320.22;5070264;28;20024;-44
2022/12/06 09:43:09;;;;;;;49.20;25.33;;;;;;;10.75;71.80;100315.31;5070673;28;20025;-45
2022/12/06 09:45:46;;;;;;;46.03;25.55;;;;;;;10.89;69.93;100315.44;5070627;28;20021;-44
2022/12/06 09:48:40;;;;;;;51.15;24.83;;;;;;;10.97;69.56;100307.34;5070423;28;20622;-45
2022/12/06 09:51:08;;;;;;;53.78;26.10;;;;;;;10.86;69.73;100305.19;5070759;28;20051;-46
2022/12/06 09:53:55;;;;;;;49.63;25.67;;;;;;;10.84;70.74;100301.91;5070357;28;20071;-43
2022/12/06 09:56:44;;;;;;;53.40;25.90;;;;;;;11.02;68.69;100298.75;5073160;28;20027;-37
2022/12/06 09:59:57;;;;;;;54.58;26.20;;;;;;;11.01;69.51;100299.78;5074136;28;20028;-38
2022/12/06 10:02:37;;;;;;;48.97;24.90;;;;;;;10.98;69.34;100293.00;5012206;28;20422;-38
2022/12/06 10:05:12;;;;;;;50.08;25.17;;;;;;;10.91;69.42;100292.94;5067599;28;20090;-37
2022/12/06 10:07:56;;;;;;;54.65;25.17;;;;;;;10.81;70.17;100283.63;5073816;28;20024;-38
2022/12/06 10:10:40;;;;;;;51.35;24.73;;;;;;;10.88;69.95;100288.00;5074341;28;20035;-37
2022/12/06 10:13:10;;;;;;;48.90;25.02;;;;;;;10.89;69.93;100278.16;5073993;28;20024;-38
2022/12/06 10:15:57;;;;;;;53.28;25.98;;;;;;;10.79;70.22;100269.69;5074199;28;20045;-37
2022/12/06 10:18:49;;;;;;;55.10;24.65;;;;;;;10.84;70.18;100265.44;5074155;28;20545;-38
2022/12/06 10:21:37;;;;;;;53.25;25.92;;;;;;;11.00;70.38;100258.19;5073772;28;20024;-37
2022/12/06 10:24:13;;;;;;;51.83;26.10;;;;;;;10.91;70.18;100247.69;5073778;28;20031;-38
2022/12/06 10:26:48;;;;;;;49.92;24.88;;;;;;;10.74;71.04;100251.66;5073938;28;20121;-37
2022/12/06 10:29:33;;;;;;;47.63;24.70;;;;;;;11.13;69.45;100243.09;5074010;28;20419;-37
2022/12/06 10:32:13;;;;;;;52.13;26.45;;;;;;;10.72;70.61;100235.03;5073895;28;20020;-37
2022/12/06 10:34:55;;;;;;;53.15;25.75;;;;;;;10.80;71.23;100240.22;5073675;28;20082;-46
2022/12/06 10:37:43;;;;;;;47.42;23.98;;;;;;;10.71;70.93;100230.72;5073738;28;20020;-38
2022/12/06 10:40:15;;;;;;;51.45;23.88;;;;;;;10.56;71.42;100220.97;5073385;28;20529;-37
2022/12/06 10:42:57;;;;;;;48.40;23.75;;;;;;;10.68;70.61;100215.13;5073316;28;20030;-39
2022/12/06 10:48:34;;;;;;;47.35;22.42;;;;;;;10.26;72.74;100209.63;5073864;28;20028;-40
2022/12/06 10:51:11;;;;;;;48.22;22.55;;;;;;;10.63;71.50;100202.41;5073351;28;20020;-38
2022/12/06 10:53:43;;;;;;;47.83;22.77;;;;;;;10.69;72.01;100196.31;5073557;28;20032;-37
2022/12/06 10:56:18;;;;;;;45.58;21.50;;;;;;;10.98;70.57;100188.31;5073831;28;20082;-38
2022/12/06 10:58:53;;;;;;;36.95;19.75;;;;;;;10.78;70.21;100188.19;5073452;28;20032;-37
2022/12/06 11:01:23;;;;;;;48.80;22.00;;;;;;;10.74;70.85;100190.41;5073268;28;20025;-37
2022/12/06 11:03:54;;;;;;;;;;;;;;;10.95;70.75;100185.03;5074041;28;20028;-38
2022/12/06 11:06:30;;;;;;;43.42;21.20;;;;;;;10.88;70.20;100186.00;5073450;28;19916;-38
2022/12/06 11:09:00;;;;;;;38.60;20.33;;;;;;;11.21;69.65;100185.38;5072462;28;20024;-38
2022/12/06 11:11:30;;;;;;;43.65;20.73;;;;;;;11.01;69.51;100185.28;5073151;28;20514;-45
2022/12/06 11:14:03;;;;;;;41.95;21.40;;;;;;;11.11;68.94;100165.25;5073494;28;20429;-43
2022/12/06 11:16:48;;;;;;;42.88;20.95;;;;;;;10.99;70.22;100185.47;5072936;28;20059;-44
2022/12/06 11:19:32;;;;;;;37.55;19.27;;;;;;;11.22;68.43;100171.88;5073479;28;20024;-45
2022/12/06 11:22:10;;;;;;;42.28;20.75;;;;;;;10.86;70.17;100164.06;5073036;28;20024;-45
2022/12/06 11:24:44;;;;;;;39.38;19.27;;;;;;;10.82;69.67;100160.97;5072971;28;20028;-45
2022/12/06 11:27:23;;;;;;;40.30;19.90;;;;;;;11.10;69.66;100144.97;5073072;28;20501;-43
2022/12/06 11:29:49;;;;;;;41.70;20.73;;;;;;;10.98;70.14;100159.03;5072950;28;20507;-44
2022/12/06 11:32:16;;;;;;;37.30;19.02;;;;;;;11.01;70.36;100148.00;5072915;28;20036;-44
2022/12/06 11:34:46;;;;;;;41.58;19.92;;;;;;;10.77;70.78;100150.09;5072975;28;20085;-44
2022/12/06 11:37:18;;;;;;;41.83;19.05;;;;;;;11.20;68.76;100133.13;5072703;28;20020;-46
2022/12/06 11:39:44;;;;;;;36.88;19.40;;;;;;;10.89;69.06;100132.56;5073053;28;20025;-45
2022/12/06 11:42:13;;;;;;;37.83;18.67;;;;;;;10.98;68.68;100146.53;5072655;28;20035;-46
2022/12/06 11:44:47;;;;;;;36.33;19.95;;;;;;;10.92;69.73;100148.13;5072313;28;20029;-45
2022/12/06 11:47:16;;;;;;;42.83;19.83;;;;;;;10.94;70.74;100156.75;5072424;28;20033;-43
2022/12/06 11:49:44;;;;;;;48.00;20.53;;;;;;;11.22;69.44;100141.75;5072318;28;20036;-44
2022/12/06 11:52:17;;;;;;;39.67;19.30;;;;;;;11.12;69.39;100145.59;5071777;28;20031;-45
2022/12/06 11:54:50;;;;;;;41.35;19.80;;;;;;;11.01;69.02;100143.47;5071976;28;20020;-43